createdAt,value
2022-07-31T00:02:07.874Z,98393.06
2022-07-31T00:04:34.519Z,98395.22
2022-07-31T00:07:01.600Z,98391.59
2022-07-31T00:09:49.234Z,98387.06
2022-07-31T00:12:17.613Z,98394.00
2022-07-31T00:14:45.125Z,98392.25
2022-07-31T00:17:12.058Z,98389.47
2022-07-31T00:19:38.830Z,98387.69
2022-07-31T00:22:05.521Z,98380.78
2022-07-31T00:24:32.124Z,98388.69
2022-07-31T00:26:58.739Z,98377.38
2022-07-31T00:29:25.762Z,98375.94
2022-07-31T00:31:53.115Z,98385.28
2022-07-31T00:34:19.712Z,98382.06
2022-07-31T00:36:46.337Z,98373.41
2022-07-31T00:39:12.923Z,98376.22
2022-07-31T00:41:45.269Z,98373.91
2022-07-31T00:44:12.871Z,98370.88
2022-07-31T00:46:40.449Z,98373.56
2022-07-31T00:49:10.375Z,98367.38
2022-07-31T00:51:38.285Z,98375.03
2022-07-31T00:54:06.753Z,98371.22
2022-07-31T00:56:33.417Z,98366.19
2022-07-31T00:59:00.121Z,98359.19
2022-07-31T01:01:27.860Z,98352.22
2022-07-31T01:03:54.894Z,98342.00
2022-07-31T01:06:21.487Z,98348.31
2022-07-31T01:08:48.789Z,98352.72
2022-07-31T01:11:41.221Z,98351.72
2022-07-31T01:14:09.430Z,98351.72
2022-07-31T01:16:43.120Z,98356.53
2022-07-31T01:19:39.515Z,98345.75
2022-07-31T01:22:34.221Z,98347.78
2022-07-31T01:25:40.383Z,98344.28
2022-07-31T01:28:51.484Z,98348.38
2022-07-31T01:31:27.482Z,98343.88
2022-07-31T01:34:10.087Z,98348.03
2022-07-31T01:36:42.082Z,98336.66
2022-07-31T01:39:08.900Z,98333.53
2022-07-31T01:41:42.045Z,98334.53
2022-07-31T01:44:13.738Z,98338.53
2022-07-31T01:46:42.603Z,98331.38
2022-07-31T01:49:12.470Z,98333.09
2022-07-31T01:51:41.710Z,98336.28
2022-07-31T01:54:10.424Z,98331.59
2022-07-31T01:56:39.064Z,98343.50
2022-07-31T01:59:18.699Z,98330.03
2022-07-31T02:02:06.422Z,98330.22
2022-07-31T02:04:37.170Z,98328.38
2022-07-31T02:07:05.745Z,98326.25
2022-07-31T02:09:33.564Z,98335.59
2022-07-31T02:12:01.602Z,98331.66
2022-07-31T02:14:31.139Z,98334.22
2022-07-31T02:16:59.566Z,98332.41
2022-07-31T02:19:59.639Z,98334.69
2022-07-31T02:22:27.383Z,98334.34
2022-07-31T02:24:54.045Z,98332.97
2022-07-31T02:27:53.800Z,98326.16
2022-07-31T02:30:13.431Z,98323.75
2022-07-31T02:32:41.306Z,98320.66
2022-07-31T02:35:08.740Z,98307.63
2022-07-31T02:37:37.669Z,98316.16
2022-07-31T02:40:05.912Z,98320.22
2022-07-31T02:42:32.821Z,98314.66
2022-07-31T02:45:01.996Z,98312.59
2022-07-31T02:47:29.491Z,98312.47
2022-07-31T02:50:02.691Z,98314.84
2022-07-31T02:52:29.989Z,98318.94
2022-07-31T02:54:58.617Z,98324.69
2022-07-31T02:57:26.077Z,98308.13
2022-07-31T02:59:52.685Z,98310.88
2022-07-31T03:02:20.562Z,98314.47
2022-07-31T03:04:47.335Z,98312.19
2022-07-31T03:07:14.907Z,98305.16
2022-07-31T03:09:41.630Z,98307.56
2022-07-31T03:12:51.062Z,98302.97
2022-07-31T03:15:20.483Z,98309.28
2022-07-31T03:17:49.178Z,98311.22
2022-07-31T03:20:20.552Z,98307.56
2022-07-31T03:22:47.652Z,98308.22
2022-07-31T03:25:20.059Z,98296.41
2022-07-31T03:27:55.532Z,98303.53
2022-07-31T03:30:27.187Z,98301.41
2022-07-31T03:32:57.216Z,98304.16
2022-07-31T03:35:27.244Z,98302.94
2022-07-31T03:37:54.056Z,98299.47
2022-07-31T03:40:21.107Z,98298.38
2022-07-31T03:42:51.162Z,98302.72
2022-07-31T03:45:19.315Z,98306.59
2022-07-31T03:47:46.602Z,98300.09
2022-07-31T03:50:14.823Z,98298.69
2022-07-31T03:52:41.942Z,98303.84
2022-07-31T03:55:09.966Z,98298.81
2022-07-31T03:57:38.254Z,98304.06
2022-07-31T04:00:07.933Z,98295.41
2022-07-31T04:02:45.112Z,98295.94
2022-07-31T04:05:31.830Z,98312.00
2022-07-31T04:07:59.490Z,98308.22
2022-07-31T04:10:26.800Z,98305.81
2022-07-31T04:12:53.495Z,98304.84
2022-07-31T04:15:20.288Z,98310.44
2022-07-31T04:17:47.069Z,98303.94
2022-07-31T04:20:18.559Z,98309.34
2022-07-31T04:22:45.675Z,98320.06
2022-07-31T04:25:26.400Z,98318.28
2022-07-31T04:28:09.312Z,98307.13
2022-07-31T04:30:35.989Z,98315.34
2022-07-31T04:33:02.627Z,98316.97
2022-07-31T04:35:29.242Z,98318.94
2022-07-31T04:37:55.973Z,98317.84
2022-07-31T04:40:26.331Z,98312.69
2022-07-31T04:42:54.445Z,98311.28
2022-07-31T04:45:21.164Z,98305.78
2022-07-31T04:47:47.789Z,98314.75
2022-07-31T04:50:15.177Z,98306.63
2022-07-31T04:52:54.988Z,98307.09
2022-07-31T04:55:22.917Z,98304.84
2022-07-31T04:57:49.642Z,98303.09
2022-07-31T05:00:16.583Z,98300.34
2022-07-31T05:02:44.163Z,98301.44
2022-07-31T05:05:10.778Z,98299.69
2022-07-31T05:07:39.275Z,98309.00
2022-07-31T05:10:31.440Z,98303.41
2022-07-31T05:12:58.169Z,98306.28
2022-07-31T05:15:24.829Z,98297.34
2022-07-31T05:17:52.024Z,98304.72
2022-07-31T05:20:38.584Z,98296.16
2022-07-31T05:23:20.619Z,98308.56
2022-07-31T05:25:58.166Z,98301.00
2022-07-31T05:28:29.957Z,98296.09
2022-07-31T05:30:57.754Z,98302.75
2022-07-31T05:33:24.401Z,98302.88
2022-07-31T05:35:51.004Z,98303.84
2022-07-31T05:38:17.615Z,98301.94
2022-07-31T05:41:10.761Z,98299.91
2022-07-31T05:43:53.831Z,98301.19
2022-07-31T05:46:24.572Z,98302.56
2022-07-31T05:48:52.348Z,98300.91
2022-07-31T05:51:20.006Z,98301.41
2022-07-31T05:53:46.979Z,98302.56
2022-07-31T05:56:32.130Z,98304.72
2022-07-31T05:59:00.318Z,98297.50
2022-07-31T06:01:27.058Z,98293.97
2022-07-31T06:03:53.860Z,98298.53
2022-07-31T06:06:23.650Z,98293.97
2022-07-31T06:08:50.507Z,98301.94
2022-07-31T06:11:17.221Z,98299.59
2022-07-31T06:13:43.952Z,98301.03
2022-07-31T06:16:29.297Z,98298.75
2022-07-31T06:18:55.920Z,98300.00
2022-07-31T06:23:48.457Z,98305.97
2022-07-31T06:26:23.110Z,98302.44
2022-07-31T06:28:52.752Z,98308.91
2022-07-31T06:31:21.137Z,98306.44
2022-07-31T06:33:49.937Z,98306.09
2022-07-31T06:36:18.800Z,98300.47
2022-07-31T06:38:56.167Z,98294.34
2022-07-31T06:41:49.574Z,98296.22
2022-07-31T06:44:28.894Z,98303.59
2022-07-31T06:47:16.094Z,98298.50
2022-07-31T06:50:02.061Z,98305.63
2022-07-31T06:52:33.994Z,98299.09
2022-07-31T06:55:01.488Z,98305.00
2022-07-31T06:57:28.467Z,98304.19
2022-07-31T06:59:55.198Z,98304.63
2022-07-31T07:02:22.194Z,98300.63
2022-07-31T07:05:06.326Z,98296.03
2022-07-31T07:07:37.639Z,98295.28
2022-07-31T07:10:07.016Z,98295.75
2022-07-31T07:12:54.237Z,98293.81
2022-07-31T07:15:21.344Z,98299.78
2022-07-31T07:17:48.082Z,98292.09
2022-07-31T07:20:20.048Z,98282.47
2022-07-31T07:22:46.743Z,98281.63
2022-07-31T07:25:20.626Z,98279.34
2022-07-31T07:27:49.305Z,98283.31
2022-07-31T07:30:15.925Z,98278.53
2022-07-31T07:32:42.556Z,98282.06
2022-07-31T07:35:12.486Z,98278.91
2022-07-31T07:37:49.333Z,98274.28
2022-07-31T07:40:17.157Z,98269.47
2022-07-31T07:42:43.957Z,98265.59
2022-07-31T07:45:11.296Z,98263.59
2022-07-31T07:48:05.697Z,98261.66
2022-07-31T07:50:29.972Z,98261.72
2022-07-31T07:53:15.108Z,98265.16
2022-07-31T07:56:01.642Z,98261.69
2022-07-31T07:58:49.253Z,98264.72
2022-07-31T08:01:50.918Z,98264.31
2022-07-31T08:04:24.115Z,98262.44
2022-07-31T08:06:50.757Z,98260.47
2022-07-31T08:09:20.504Z,98255.13
2022-07-31T08:12:16.316Z,98254.81
2022-07-31T08:15:01.621Z,98254.34
2022-07-31T08:17:51.685Z,98254.00
2022-07-31T08:20:18.439Z,98254.69
2022-07-31T08:22:45.051Z,98256.59
2022-07-31T08:25:11.861Z,98254.97
2022-07-31T08:27:42.128Z,98250.81
2022-07-31T08:30:10.215Z,98253.44
2022-07-31T08:32:38.627Z,98259.09
2022-07-31T08:35:05.803Z,98247.16
2022-07-31T08:37:52.092Z,98247.06
2022-07-31T08:40:20.959Z,98252.91
2022-07-31T08:42:47.886Z,98245.91
2022-07-31T08:45:15.327Z,98244.59
2022-07-31T08:48:00.249Z,98244.22
2022-07-31T08:50:31.954Z,98241.38
2022-07-31T08:53:02.587Z,98233.53
2022-07-31T08:55:56.324Z,98237.94
2022-07-31T08:58:27.858Z,98230.69
2022-07-31T09:00:54.983Z,98235.69
2022-07-31T09:03:22.847Z,98231.19
2022-07-31T09:05:58.836Z,98237.50
2022-07-31T09:08:32.519Z,98235.94
2022-07-31T09:11:10.213Z,98229.09
2022-07-31T09:14:01.451Z,98230.72
2022-07-31T09:16:47.733Z,98227.09
2022-07-31T09:19:51.132Z,98225.56
2022-07-31T09:22:24.704Z,98221.78
2022-07-31T09:24:54.205Z,98221.84
2022-07-31T09:27:28.325Z,98221.47
2022-07-31T09:29:56.929Z,98214.34
2022-07-31T09:32:46.440Z,98214.47
2022-07-31T09:35:20.652Z,98219.19
2022-07-31T09:37:47.854Z,98212.00
2022-07-31T09:40:37.500Z,98222.06
2022-07-31T09:43:31.451Z,98214.94
2022-07-31T09:46:00.307Z,98208.25
2022-07-31T09:48:28.832Z,98213.00
2022-07-31T09:51:01.751Z,98203.59
2022-07-31T09:53:45.667Z,98205.06
2022-07-31T09:56:46.414Z,98210.59
2022-07-31T09:59:13.020Z,98206.56
2022-07-31T10:01:41.381Z,98201.91
2022-07-31T10:04:08.607Z,98205.63
2022-07-31T10:06:36.473Z,98200.50
2022-07-31T10:09:05.167Z,98207.94
2022-07-31T10:11:52.306Z,98214.69
2022-07-31T10:14:32.248Z,98220.78
2022-07-31T10:17:01.068Z,98210.66
2022-07-31T10:19:47.592Z,98221.44
2022-07-31T10:22:39.452Z,98217.06
2022-07-31T10:25:12.938Z,98208.78
2022-07-31T10:27:41.258Z,98204.94
2022-07-31T10:30:12.484Z,98202.78
2022-07-31T10:32:44.329Z,98203.00
2022-07-31T10:35:26.897Z,98204.72
2022-07-31T10:38:18.943Z,98202.28
2022-07-31T10:41:41.396Z,98195.06
2022-07-31T10:44:17.003Z,98198.03
2022-07-31T10:46:57.885Z,98193.66
2022-07-31T10:49:42.444Z,98184.88
2022-07-31T10:52:37.246Z,98185.72
2022-07-31T10:55:22.509Z,98192.41
2022-07-31T10:58:15.595Z,98183.88
2022-07-31T11:00:53.671Z,98191.84
2022-07-31T11:03:41.860Z,98190.03
2022-07-31T11:06:21.729Z,98184.41
2022-07-31T11:08:55.652Z,98184.47
2022-07-31T11:12:01.708Z,98179.91
2022-07-31T11:14:43.147Z,98176.31
2022-07-31T11:18:20.894Z,98167.59
2022-07-31T11:20:32.008Z,98167.66
2022-07-31T11:23:04.358Z,98156.00
2022-07-31T11:25:34.130Z,98149.22
2022-07-31T11:28:18.981Z,98151.06
2022-07-31T11:30:50.518Z,98149.19
2022-07-31T11:33:41.894Z,98141.25
2022-07-31T11:36:20.276Z,98139.59
2022-07-31T11:38:49.832Z,98135.50
2022-07-31T11:41:17.957Z,98135.84
2022-07-31T11:43:51.209Z,98123.72
2022-07-31T11:46:26.262Z,98128.44
2022-07-31T11:48:54.148Z,98135.34
2022-07-31T11:51:21.870Z,98123.94
2022-07-31T11:53:57.134Z,98120.41
2022-07-31T11:56:26.691Z,98121.03
2022-07-31T11:58:56.885Z,98113.63
2022-07-31T12:01:28.013Z,98121.63
2022-07-31T12:03:55.901Z,98106.84
2022-07-31T12:06:22.804Z,98109.00
2022-07-31T12:08:50.496Z,98108.84
2022-07-31T12:11:19.603Z,98110.16
2022-07-31T12:13:48.113Z,98106.72
2022-07-31T12:16:15.695Z,98116.16
2022-07-31T12:18:51.335Z,98111.84
2022-07-31T12:21:19.159Z,98114.72
2022-07-31T12:23:48.721Z,98114.06
2022-07-31T12:26:27.504Z,98104.28
2022-07-31T12:29:08.908Z,98107.06
2022-07-31T12:31:54.326Z,98110.97
2022-07-31T12:34:32.170Z,98106.84
2022-07-31T12:36:58.809Z,98098.44
2022-07-31T12:39:25.500Z,98100.00
2022-07-31T12:42:21.315Z,98092.56
2022-07-31T12:45:00.728Z,98105.84
2022-07-31T12:47:30.201Z,98100.31
2022-07-31T12:49:57.489Z,98102.25
2022-07-31T12:52:25.769Z,98110.53
2022-07-31T12:54:52.542Z,98100.72
2022-07-31T12:57:19.413Z,98101.41
2022-07-31T12:59:46.087Z,98099.94
2022-07-31T13:02:13.142Z,98098.41
2022-07-31T13:04:39.778Z,98097.09
2022-07-31T13:07:07.736Z,98099.16
2022-07-31T13:09:34.819Z,98103.66
2022-07-31T13:12:01.533Z,98103.09
2022-07-31T13:14:28.448Z,98089.69
2022-07-31T13:16:55.542Z,98095.59
2022-07-31T13:19:22.177Z,98095.97
2022-07-31T13:21:51.547Z,98088.53
2022-07-31T13:24:19.388Z,98082.19
2022-07-31T13:26:47.171Z,98079.31
2022-07-31T13:29:13.900Z,98076.13
2022-07-31T13:31:40.713Z,98069.66
2022-07-31T13:34:07.731Z,98064.66
2022-07-31T13:36:39.064Z,98059.94
2022-07-31T13:39:07.179Z,98069.19
2022-07-31T13:41:35.595Z,98051.56
2022-07-31T13:44:03.551Z,98052.28
2022-07-31T13:46:31.668Z,98050.34
2022-07-31T13:48:59.685Z,98044.66
2022-07-31T13:51:29.445Z,98043.19
2022-07-31T13:53:56.323Z,98045.13
2022-07-31T13:56:40.950Z,98046.19
2022-07-31T13:59:09.722Z,98045.69
2022-07-31T14:02:03.359Z,98037.31
2022-07-31T14:04:25.070Z,98051.84
2022-07-31T14:06:51.746Z,98044.97
2022-07-31T14:09:19.243Z,98040.44
2022-07-31T14:11:46.353Z,98038.44
2022-07-31T14:14:15.212Z,98033.59
2022-07-31T14:16:49.552Z,98036.47
2022-07-31T14:19:16.681Z,98035.59
2022-07-31T14:21:50.016Z,98025.91
2022-07-31T14:24:23.266Z,98031.56
2022-07-31T14:26:49.856Z,98032.84
2022-07-31T14:29:16.432Z,98025.06
2022-07-31T14:31:43.023Z,98030.50
2022-07-31T14:34:09.604Z,98029.63
2022-07-31T14:36:36.177Z,98027.28
2022-07-31T14:39:02.762Z,98032.50
2022-07-31T14:41:29.339Z,98032.34
2022-07-31T14:43:55.916Z,98023.91
2022-07-31T14:46:22.463Z,98017.56
2022-07-31T14:48:49.084Z,98021.75
2022-07-31T14:51:19.600Z,98020.94
2022-07-31T14:53:46.820Z,98013.78
2022-07-31T14:56:13.678Z,98015.38
2022-07-31T14:58:58.632Z,98015.34
2022-07-31T15:01:26.776Z,98014.16
2022-07-31T15:03:57.427Z,98015.69
2022-07-31T15:06:39.797Z,98009.28
2022-07-31T15:09:10.775Z,98006.47
2022-07-31T15:12:00.429Z,98013.84
2022-07-31T15:14:24.107Z,98019.00
2022-07-31T15:16:50.726Z,98022.88
2022-07-31T15:19:17.381Z,98017.03
2022-07-31T15:22:10.326Z,98019.00
2022-07-31T15:24:33.605Z,98013.75
2022-07-31T15:27:00.220Z,98015.28
2022-07-31T15:30:04.839Z,98016.97
2022-07-31T15:32:13.865Z,98022.19
2022-07-31T15:34:40.467Z,98017.38
2022-07-31T15:37:07.700Z,98015.03
2022-07-31T15:39:34.611Z,98015.97
2022-07-31T15:42:02.107Z,98019.09
2022-07-31T15:44:29.113Z,98019.28
2022-07-31T15:46:55.765Z,98018.72
2022-07-31T15:49:22.629Z,98018.69
2022-07-31T15:51:49.196Z,98017.59
2022-07-31T15:54:16.170Z,98023.19
2022-07-31T15:56:42.877Z,98006.97
2022-07-31T15:59:09.461Z,98013.84
2022-07-31T16:01:37.667Z,98020.38
2022-07-31T16:04:16.827Z,98012.00
2022-07-31T16:06:49.044Z,98004.75
2022-07-31T16:09:17.220Z,98006.16
2022-07-31T16:12:04.348Z,98014.88
2022-07-31T16:14:30.455Z,98008.09
2022-07-31T16:16:57.518Z,98005.41
2022-07-31T16:19:25.229Z,97997.91
2022-07-31T16:21:53.394Z,97997.56
2022-07-31T16:24:21.964Z,97997.59
2022-07-31T16:26:49.565Z,97982.91
2022-07-31T16:29:17.783Z,97988.41
2022-07-31T16:32:04.122Z,97989.13
2022-07-31T16:34:30.739Z,97989.16
2022-07-31T16:36:57.319Z,97984.88
2022-07-31T16:39:23.962Z,97980.13
2022-07-31T16:41:54.587Z,97980.38
2022-07-31T16:44:21.909Z,97983.78
2022-07-31T16:46:54.232Z,97984.72
2022-07-31T16:49:35.288Z,97981.97
2022-07-31T16:52:03.225Z,97980.97
2022-07-31T16:54:29.801Z,97971.13
2022-07-31T16:56:56.447Z,97982.75
2022-07-31T16:59:23.032Z,97975.88
2022-07-31T17:01:58.638Z,97971.69
2022-07-31T17:04:27.647Z,97984.72
2022-07-31T17:06:55.052Z,97978.88
2022-07-31T17:09:22.067Z,97978.38
2022-07-31T17:11:54.049Z,97982.69
2022-07-31T17:14:23.416Z,97986.16
2022-07-31T17:16:51.998Z,97980.16
2022-07-31T17:19:41.851Z,97978.13
2022-07-31T17:22:08.196Z,97977.22
2022-07-31T17:24:38.080Z,97974.63
2022-07-31T17:27:09.807Z,97984.53
2022-07-31T17:29:38.119Z,97983.78
2022-07-31T17:32:05.562Z,97989.09
2022-07-31T17:34:32.186Z,97992.31
2022-07-31T17:36:58.769Z,97996.63
2022-07-31T17:39:30.370Z,98001.41
2022-07-31T17:41:57.603Z,98004.09
2022-07-31T17:44:24.218Z,98003.38
2022-07-31T17:46:51.198Z,98000.09
2022-07-31T17:49:19.173Z,98004.88
2022-07-31T17:51:59.118Z,98010.91
2022-07-31T17:54:26.131Z,98007.72
2022-07-31T17:56:54.397Z,98005.06
2022-07-31T17:59:21.140Z,98007.84
2022-07-31T18:01:51.719Z,98017.16
2022-07-31T18:04:19.236Z,98020.38
2022-07-31T18:06:46.051Z,98018.94
2022-07-31T18:09:14.454Z,98021.28
2022-07-31T18:11:41.064Z,98011.81
2022-07-31T18:14:07.635Z,98019.53
2022-07-31T18:16:34.212Z,98019.66
2022-07-31T18:19:00.849Z,98021.63
2022-07-31T18:21:27.521Z,98022.00
2022-07-31T18:23:54.171Z,98028.97
2022-07-31T18:26:20.804Z,98029.88
2022-07-31T18:28:47.353Z,98024.91
2022-07-31T18:31:32.050Z,98028.00
2022-07-31T18:34:00.746Z,98028.88
2022-07-31T18:36:27.428Z,98030.03
2022-07-31T18:38:54.189Z,98027.69
2022-07-31T18:41:20.918Z,98021.63
2022-07-31T18:43:48.013Z,98023.59
2022-07-31T18:46:15.052Z,98024.78
2022-07-31T18:48:41.860Z,98026.00
2022-07-31T18:51:08.623Z,98030.63
2022-07-31T18:53:35.299Z,98027.69
2022-07-31T18:56:01.966Z,98028.00
2022-07-31T18:58:28.576Z,98023.88
2022-07-31T19:00:55.692Z,98021.94
2022-07-31T19:03:23.684Z,98015.09
2022-07-31T19:05:52.922Z,98021.63
2022-07-31T19:08:20.603Z,98022.41
2022-07-31T19:10:49.444Z,98022.91
2022-07-31T19:13:18.910Z,98031.41
2022-07-31T19:15:46.700Z,98026.47
2022-07-31T19:18:14.082Z,98030.28
2022-07-31T19:21:00.035Z,98031.50
2022-07-31T19:23:28.958Z,98036.50
2022-07-31T19:26:04.157Z,98026.97
2022-07-31T19:28:34.705Z,98025.78
2022-07-31T19:31:01.447Z,98033.06
2022-07-31T19:33:28.021Z,98038.03
2022-07-31T19:36:00.732Z,98039.53
2022-07-31T19:38:29.088Z,98041.81
2022-07-31T19:40:55.731Z,98038.75
2022-07-31T19:43:23.030Z,98039.13
2022-07-31T19:46:09.624Z,98041.41
2022-07-31T19:48:36.963Z,98051.31
2022-07-31T19:51:04.234Z,98044.47
2022-07-31T19:53:31.134Z,98052.84
2022-07-31T19:55:57.750Z,98050.19
2022-07-31T19:58:24.559Z,98054.03
2022-07-31T20:00:51.129Z,98053.25
2022-07-31T20:03:17.831Z,98055.94
2022-07-31T20:05:44.534Z,98060.50
2022-07-31T20:08:11.107Z,98058.63
2022-07-31T20:10:37.761Z,98061.28
2022-07-31T20:13:04.771Z,98058.97
2022-07-31T20:15:51.596Z,98059.75
2022-07-31T20:18:26.691Z,98052.16
2022-07-31T20:20:56.942Z,98058.59
2022-07-31T20:23:23.974Z,98063.91
2022-07-31T20:25:50.639Z,98069.63
2022-07-31T20:28:17.323Z,98064.31
2022-07-31T20:30:43.922Z,98070.78
2022-07-31T20:33:11.171Z,98066.63
2022-07-31T20:35:49.037Z,98074.56
2022-07-31T20:38:21.357Z,98072.69
2022-07-31T20:40:53.473Z,98073.81
2022-07-31T20:43:29.149Z,98078.00
2022-07-31T20:45:57.771Z,98085.53
2022-07-31T20:48:32.827Z,98074.16
2022-07-31T20:51:01.655Z,98077.97
2022-07-31T20:53:28.925Z,98073.41
2022-07-31T20:55:56.023Z,98082.91
2022-07-31T20:58:23.369Z,98087.06
2022-07-31T21:00:51.441Z,98079.47
2022-07-31T21:03:19.432Z,98083.66
2022-07-31T21:05:47.227Z,98085.53
2022-07-31T21:08:13.960Z,98083.59
2022-07-31T21:10:40.758Z,98084.38
2022-07-31T21:13:07.815Z,98088.53
2022-07-31T21:15:42.579Z,98085.53
2022-07-31T21:18:16.235Z,98084.34
2022-07-31T21:20:51.440Z,98090.78
2022-07-31T21:23:24.648Z,98091.91
2022-07-31T21:25:56.578Z,98083.91
2022-07-31T21:28:24.490Z,98094.50
2022-07-31T21:30:53.745Z,98095.69
2022-07-31T21:33:20.603Z,98100.94
2022-07-31T21:35:47.492Z,98093.34
2022-07-31T21:38:17.240Z,98095.56
2022-07-31T21:40:45.041Z,98101.97
2022-07-31T21:43:16.023Z,98097.84
2022-07-31T21:45:55.020Z,98102.34
2022-07-31T21:48:26.244Z,98105.41
2022-07-31T21:50:53.976Z,98103.53
2022-07-31T21:53:21.090Z,98106.94
2022-07-31T21:55:47.812Z,98112.16
2022-07-31T21:58:14.446Z,98112.13
2022-07-31T22:00:41.141Z,98101.47
2022-07-31T22:03:07.772Z,98102.13
2022-07-31T22:05:53.397Z,98108.66
2022-07-31T22:08:20.853Z,98115.09
2022-07-31T22:10:50.014Z,98117.72
2022-07-31T22:13:16.643Z,98118.81
2022-07-31T22:15:52.761Z,98121.09
2022-07-31T22:18:29.356Z,98125.63
2022-07-31T22:20:56.874Z,98125.56
2022-07-31T22:23:23.952Z,98131.56
2022-07-31T22:25:50.867Z,98131.66
2022-07-31T22:28:19.344Z,98128.97
2022-07-31T22:30:46.606Z,98122.88
2022-07-31T22:33:13.522Z,98124.03
2022-07-31T22:35:40.983Z,98127.78
2022-07-31T22:38:08.425Z,98128.47
2022-07-31T22:40:35.373Z,98131.84
2022-07-31T22:43:03.301Z,98124.66
2022-07-31T22:45:30.341Z,98127.34
2022-07-31T22:47:57.565Z,98136.78
2022-07-31T22:50:24.271Z,98129.56
2022-07-31T22:52:51.231Z,98129.22
2022-07-31T22:55:17.919Z,98129.13
2022-07-31T22:57:45.058Z,98135.22
2022-07-31T23:00:13.458Z,98135.97
2022-07-31T23:02:42.126Z,98137.69
2022-07-31T23:05:09.670Z,98138.09
2022-07-31T23:07:36.660Z,98142.63
2022-07-31T23:10:07.550Z,98135.69
2022-07-31T23:12:34.301Z,98146.31
2022-07-31T23:15:00.943Z,98150.03
2022-07-31T23:17:27.557Z,98151.63
2022-07-31T23:19:54.805Z,98158.84
2022-07-31T23:22:33.379Z,98163.28
2022-07-31T23:25:02.565Z,98158.22
2022-07-31T23:27:29.267Z,98153.38
2022-07-31T23:29:55.859Z,98156.31
2022-07-31T23:32:22.653Z,98157.16
2022-07-31T23:34:49.212Z,98160.31
2022-07-31T23:37:15.799Z,98156.25
2022-07-31T23:39:42.488Z,98156.19
2022-07-31T23:42:27.935Z,98155.84
2022-07-31T23:44:54.541Z,98157.28
2022-07-31T23:47:23.993Z,98158.41
2022-07-31T23:50:07.614Z,98149.28
2022-07-31T23:52:34.251Z,98154.53
2022-07-31T23:55:00.852Z,98146.97
2022-07-31T23:57:27.480Z,98140.44
